createdAt,value
2022-09-28T00:01:17.713Z,1.60
2022-09-28T00:03:47.707Z,1.73
2022-09-28T00:08:42.837Z,1.70
2022-09-28T00:11:13.765Z,1.95
2022-09-28T00:13:41.634Z,1.73
2022-09-28T00:16:12.470Z,1.70
2022-09-28T00:18:39.253Z,1.70
2022-09-28T00:21:08.763Z,1.70
2022-09-28T00:23:56.424Z,1.70
2022-09-28T00:26:23.927Z,1.95
2022-09-28T00:28:55.138Z,2.05
2022-09-28T00:31:23.383Z,1.90
2022-09-28T00:33:51.465Z,1.95
2022-09-28T00:36:18.810Z,1.80
2022-09-28T00:38:46.419Z,2.00
2022-09-28T00:41:13.395Z,1.80
2022-09-28T00:43:40.346Z,2.20
2022-09-28T00:46:33.040Z,2.70
2022-09-28T00:49:11.174Z,2.30
2022-09-28T00:51:39.823Z,2.40
2022-09-28T00:54:09.238Z,2.50
2022-09-28T00:56:40.579Z,2.35
2022-09-28T00:59:09.499Z,2.63
2022-09-28T01:01:37.104Z,2.42
2022-09-28T01:04:05.033Z,2.80
2022-09-28T01:06:36.035Z,3.30
2022-09-28T01:09:06.503Z,2.85
2022-09-28T01:11:36.775Z,3.17
2022-09-28T01:14:09.089Z,3.42
2022-09-28T01:16:46.283Z,2.80
2022-09-28T01:19:49.100Z,3.38
2022-09-28T01:22:58.235Z,3.28
2022-09-28T01:25:41.159Z,3.40
2022-09-28T01:28:16.327Z,3.63
2022-09-28T01:30:50.351Z,3.70
2022-09-28T01:33:26.311Z,3.88
2022-09-28T01:35:57.210Z,3.95
2022-09-28T01:38:30.432Z,3.85
2022-09-28T01:40:59.912Z,4.05
2022-09-28T01:43:29.009Z,3.47
2022-09-28T01:46:16.541Z,3.80
2022-09-28T01:48:59.460Z,4.13
2022-09-28T01:51:35.600Z,3.80
2022-09-28T01:54:14.873Z,4.05
2022-09-28T01:56:57.095Z,3.90
2022-09-28T01:59:30.957Z,4.15
2022-09-28T02:02:09.943Z,3.55
2022-09-28T02:05:01.812Z,3.67
2022-09-28T02:07:45.249Z,3.80
2022-09-28T02:10:23.135Z,3.63
2022-09-28T02:13:01.586Z,3.85
2022-09-28T02:16:04.460Z,3.40
2022-09-28T02:18:31.709Z,3.65
2022-09-28T02:21:09.636Z,3.50
2022-09-28T02:23:39.708Z,3.47
2022-09-28T02:26:14.307Z,3.25
2022-09-28T02:28:41.148Z,3.20
2022-09-28T02:31:07.922Z,3.10
2022-09-28T02:33:38.433Z,3.08
2022-09-28T02:36:06.375Z,3.10
2022-09-28T02:38:38.023Z,3.08
2022-09-28T02:41:38.597Z,2.85
2022-09-28T02:44:37.940Z,2.30
2022-09-28T02:47:11.742Z,3.00
2022-09-28T02:49:47.430Z,2.97
2022-09-28T02:52:33.526Z,2.90
2022-09-28T02:55:10.974Z,2.97
2022-09-28T02:58:05.074Z,3.40
2022-09-28T03:00:38.690Z,2.90
2022-09-28T03:03:24.227Z,2.85
2022-09-28T03:06:03.483Z,2.80
2022-09-28T03:08:49.411Z,2.90
2022-09-28T03:11:23.145Z,2.88
2022-09-28T03:13:51.920Z,2.60
2022-09-28T03:18:49.408Z,2.67
2022-09-28T03:21:16.692Z,2.92
2022-09-28T03:23:43.563Z,2.80
2022-09-28T03:26:12.676Z,2.50
2022-09-28T03:28:40.151Z,2.50
2022-09-28T03:31:09.678Z,2.80
2022-09-28T03:33:36.542Z,2.65
2022-09-28T03:36:03.537Z,2.70
2022-09-28T03:38:30.867Z,2.40
2022-09-28T03:40:59.821Z,3.30
2022-09-28T03:43:30.943Z,2.22
2022-09-28T03:46:01.289Z,2.83
2022-09-28T03:48:33.002Z,2.53
2022-09-28T03:51:09.252Z,2.50
2022-09-28T03:53:37.058Z,2.47
2022-09-28T03:56:15.681Z,2.75
2022-09-28T03:58:42.967Z,2.50
2022-09-28T04:01:17.020Z,2.67
2022-09-28T04:03:46.778Z,2.28
2022-09-28T04:06:14.226Z,2.47
2022-09-28T04:08:40.896Z,1.98
2022-09-28T04:11:08.637Z,2.80
2022-09-28T04:13:35.507Z,2.40
2022-09-28T04:16:02.404Z,2.42
2022-09-28T04:18:35.220Z,2.10
2022-09-28T04:21:25.267Z,2.13
2022-09-28T04:24:00.830Z,2.10
2022-09-28T04:26:28.414Z,2.22
2022-09-28T04:29:15.097Z,2.53
2022-09-28T04:31:52.427Z,2.25
2022-09-28T04:34:22.914Z,2.00
2022-09-28T04:36:50.096Z,2.05
2022-09-28T04:39:19.215Z,2.35
2022-09-28T04:41:51.852Z,1.70
2022-09-28T04:44:18.943Z,1.90
2022-09-28T04:46:47.286Z,2.00
2022-09-28T04:49:29.360Z,1.70
2022-09-28T04:52:13.537Z,1.50
2022-09-28T04:54:44.236Z,1.90
2022-09-28T04:57:11.440Z,1.70
2022-09-28T04:59:38.931Z,1.85
2022-09-28T05:02:05.706Z,1.70
2022-09-28T05:04:51.052Z,1.40
2022-09-28T05:07:46.019Z,1.60
2022-09-28T05:10:13.378Z,1.70
2022-09-28T05:12:40.506Z,2.10
2022-09-28T05:15:07.629Z,2.47
2022-09-28T05:17:34.317Z,1.65
2022-09-28T05:20:20.265Z,1.70
2022-09-28T05:22:47.030Z,1.75
2022-09-28T05:25:13.791Z,1.30
2022-09-28T05:27:56.821Z,1.67
2022-09-28T05:30:36.847Z,1.58
2022-09-28T05:33:27.454Z,1.75
2022-09-28T05:36:11.028Z,1.42
2022-09-28T05:38:38.229Z,1.70
2022-09-28T05:41:06.796Z,1.67
2022-09-28T05:43:33.864Z,1.40
2022-09-28T05:46:03.460Z,1.60
2022-09-28T05:48:30.527Z,1.35
2022-09-28T05:50:58.856Z,1.50
2022-09-28T05:53:26.589Z,1.80
2022-09-28T05:55:53.260Z,2.05
2022-09-28T05:58:20.023Z,1.90
2022-09-28T06:00:47.222Z,2.20
2022-09-28T06:03:14.685Z,2.25
2022-09-28T06:05:41.834Z,1.80
2022-09-28T06:08:12.882Z,1.90
2022-09-28T06:10:44.224Z,2.03
2022-09-28T06:13:14.642Z,1.83
2022-09-28T06:15:42.740Z,1.60
